Dades de l'estació automàtica PN del Garraf - el Rascler
Resum diari
16:30 TU| Temperatura mitjana | 14.5 °C | |
|---|---|---|
| Temperatura màxima | 17.8 °C | 14:13 TU |
| Temperatura mínima | 12.3 °C | 5:19 TU |
| Humitat relativa mitjana | 84% | |
| Precipitació acumulada | 0.0 mm | |
| Ratxa màxima del vent (2 m) | 18.7 km/h - 92º | 6:07 TU |
| Irradiació solar global | 10.9 MJ/m2 | |
El tram horari està expressat en Temps Universal (TU). Cal sumar una hora en horari d'hivern i dues en horari d'estiu per passar a l'hora oficial.
PN del Garraf - el Rascler
| Municipi | Begues |
|---|---|
| Comarca | Baix Llobregat |
| Altitud | 573 m |
| Data alta | 29.02.1996 |
| Estat actual | Operativa |
| Període TU |
TM °C |
TX °C |
TN °C |
HRM % |
PPT mm |
VVM (2 m) km/h |
DVM (2 m) graus |
VVX (2 m) km/h |
RS W/m2 |
|---|---|---|---|---|---|---|---|---|---|
| 00:00 - 00:30 | 13.6 | 13.7 | 13.6 | 99 | 0.0 | 2.5 | 20 | 7.9 | 0 |
| 00:30 - 01:00 | 13.6 | 13.6 | 13.5 | 99 | 0.0 | 2.9 | 10 | 8.6 | 0 |
| 01:00 - 01:30 | 13.6 | 13.6 | 13.5 | 99 | 0.0 | 2.9 | 350 | 9.7 | 0 |
| 01:30 - 02:00 | 13.5 | 13.5 | 13.4 | 99 | 0.0 | 3.2 | 6 | 9.7 | 0 |
| 02:00 - 02:30 | 12.9 | 13.4 | 12.5 | 99 | 0.0 | 4.0 | 42 | 9.4 | 0 |
| 02:30 - 03:00 | 12.6 | 12.8 | 12.4 | 98 | 0.0 | 4.7 | 53 | 10.4 | 0 |
| 03:00 - 03:30 | 12.7 | 12.8 | 12.7 | 98 | 0.0 | 3.6 | 37 | 9.7 | 0 |
| 03:30 - 04:00 | 12.7 | 12.7 | 12.7 | 99 | 0.0 | 3.2 | 16 | 9.4 | 0 |
| 04:00 - 04:30 | 12.7 | 12.8 | 12.7 | 99 | 0.0 | 2.9 | 357 | 10.4 | 0 |
| 04:30 - 05:00 | 12.6 | 12.6 | 12.4 | 99 | 0.0 | 4.0 | 40 | 9.0 | 1 |
| 05:00 - 05:30 | 12.5 | 12.6 | 12.3 | 97 | 0.0 | 4.7 | 49 | 14.8 | 13 |
| 05:30 - 06:00 | 12.7 | 12.8 | 12.5 | 95 | 0.0 | 5.0 | 53 | 17.3 | 43 |
| 06:00 - 06:30 | 12.8 | 13.1 | 12.7 | 94 | 0.0 | 5.0 | 57 | 18.7 | 81 |
| 06:30 - 07:00 | 13.1 | 13.3 | 13.0 | 92 | 0.0 | 4.3 | 46 | 9.0 | 113 |
| 07:00 - 07:30 | 13.4 | 13.7 | 13.2 | 88 | 0.0 | 4.3 | 54 | 10.4 | 144 |
| 07:30 - 08:00 | 13.5 | 13.7 | 13.4 | 87 | 0.0 | 2.9 | 40 | 8.3 | 78 |
| 08:00 - 08:30 | 13.9 | 14.4 | 13.5 | 82 | 0.0 | 2.9 | 56 | 9.0 | 167 |
| 08:30 - 09:00 | 14.9 | 15.6 | 14.5 | 71 | 0.0 | 3.6 | 47 | 11.5 | 288 |
| 09:00 - 09:30 | 15.9 | 16.3 | 15.4 | 66 | 0.0 | 3.2 | 40 | 12.6 | 379 |
| 09:30 - 10:00 | 16.2 | 16.5 | 15.7 | 64 | 0.0 | 2.9 | 34 | 10.1 | 270 |
| 10:00 - 10:30 | 16.0 | 16.2 | 15.7 | 64 | 0.0 | 2.5 | 35 | 7.9 | 233 |
| 10:30 - 11:00 | 16.5 | 17.0 | 16.0 | 63 | 0.0 | 2.9 | 344 | 7.2 | 359 |
| 11:00 - 11:30 | 16.8 | 17.2 | 16.2 | 66 | 0.0 | 2.9 | 357 | 10.4 | 460 |
| 11:30 - 12:00 | 16.6 | 17.1 | 15.9 | 69 | 0.0 | 2.9 | 20 | 10.1 | 405 |
| 12:00 - 12:30 | 16.1 | 16.6 | 15.7 | 77 | 0.0 | 3.2 | 7 | 9.7 | 400 |
| 12:30 - 13:00 | 16.7 | 17.5 | 16.1 | 74 | 0.0 | 4.0 | 33 | 11.5 | 538 |
| 13:00 - 13:30 | 16.8 | 17.5 | 16.0 | 74 | 0.0 | 2.9 | 10 | 8.3 | 399 |
| 13:30 - 14:00 | 16.7 | 17.1 | 16.3 | 73 | 0.0 | 3.2 | 35 | 9.4 | 472 |
| 14:00 - 14:30 | 17.1 | 17.8 | 16.3 | 68 | 0.0 | 2.9 | 2 | 10.1 | 440 |
| 14:30 - 15:00 | 16.0 | 16.5 | 15.2 | 72 | 0.0 | 3.2 | 19 | 9.4 | 262 |
| 15:00 - 15:30 | 15.1 | 15.6 | 14.6 | 82 | 0.0 | 2.9 | 9 | 7.6 | 104 |
| 15:30 - 16:00 | 14.5 | 14.9 | 14.3 | 83 | 0.0 | 3.2 | 26 | 7.6 | 155 |
| 16:00 - 16:30 | 14.5 | 14.9 | 14.2 | 81 | 0.0 | 3.6 | 35 | 8.3 | 139 |
| 16:30 - 17:00 | 14.2 | 14.4 | 14.0 | 83 | 0.0 | 4.3 | 52 | 8.3 | 134 |
Les dades en taronja només han passat un control de qualitat automàtic. Resta pendent la seva validació definitiva.